createdAt,value
2023-02-04T00:00:49.561Z,97083.84
2023-02-04T00:02:52.719Z,97127.63
2023-02-04T00:04:55.636Z,97124.72
2023-02-04T00:06:58.413Z,97107.00
2023-02-04T00:09:01.179Z,97128.53
2023-02-04T00:11:07.355Z,97124.78
2023-02-04T00:13:10.148Z,97103.72
2023-02-04T00:15:12.911Z,97041.47
2023-02-04T00:17:17.199Z,97128.72
2023-02-04T00:19:19.980Z,97126.31
2023-02-04T00:21:22.750Z,97130.44
2023-02-04T00:23:25.467Z,97126.03
2023-02-04T00:25:28.480Z,97135.16
2023-02-04T00:27:31.202Z,97098.47
2023-02-04T00:29:33.948Z,97109.94
2023-02-04T00:31:36.710Z,97132.19
2023-02-04T00:33:42.769Z,97146.06
2023-02-04T00:35:45.541Z,97079.78
2023-02-04T00:37:49.655Z,97073.50
2023-02-04T00:39:52.851Z,97063.91
2023-02-04T00:41:55.624Z,97147.81
2023-02-04T00:43:58.384Z,97149.31
2023-02-04T00:46:01.319Z,97154.44
2023-02-04T00:48:04.156Z,97066.81
2023-02-04T00:50:08.881Z,97142.81
2023-02-04T00:52:11.664Z,97136.59
2023-02-04T00:54:15.892Z,97145.63
2023-02-04T00:56:18.725Z,97140.19
2023-02-04T00:58:21.474Z,97139.00
2023-02-04T01:00:24.457Z,97154.56
2023-02-04T01:02:27.326Z,97149.66
2023-02-04T01:04:30.089Z,97134.13
2023-02-04T01:06:34.491Z,97049.25
2023-02-04T01:08:37.254Z,97128.31
2023-02-04T01:10:40.092Z,97135.19
2023-02-04T01:12:43.066Z,97151.66
2023-02-04T01:14:46.018Z,97146.75
2023-02-04T01:16:48.929Z,97142.97
2023-02-04T01:18:51.921Z,97142.13
2023-02-04T01:20:54.714Z,97135.50
2023-02-04T01:22:58.847Z,97140.41
2023-02-04T01:25:01.752Z,97135.41
2023-02-04T01:27:17.041Z,97146.69
2023-02-04T01:29:19.824Z,97140.44
2023-02-04T01:31:22.821Z,97146.22
2023-02-04T01:33:25.585Z,97148.31
2023-02-04T01:35:28.420Z,97137.28
2023-02-04T01:37:31.131Z,97143.88
2023-02-04T01:39:35.227Z,97035.09
2023-02-04T01:41:38.016Z,97100.91
2023-02-04T01:43:40.771Z,97151.16
2023-02-04T01:45:43.568Z,97142.44
2023-02-04T01:47:47.265Z,97123.84
2023-02-04T01:49:53.949Z,97099.44
2023-02-04T01:51:56.767Z,97142.72
2023-02-04T01:54:01.136Z,97125.53
2023-02-04T01:56:16.781Z,97126.56
2023-02-04T01:58:20.312Z,97092.41
2023-02-04T02:00:26.468Z,97125.34
2023-02-04T02:02:43.532Z,97131.94
2023-02-04T02:04:46.344Z,97144.13
2023-02-04T02:06:53.531Z,97137.81
2023-02-04T02:08:58.255Z,97142.81
2023-02-04T02:11:01.115Z,97146.31
2023-02-04T02:13:06.047Z,97138.97
2023-02-04T02:15:10.469Z,97134.66
2023-02-04T02:17:13.296Z,97133.25
2023-02-04T02:19:21.391Z,97142.63
2023-02-04T02:21:32.574Z,97085.47
2023-02-04T02:23:48.688Z,97141.66
2023-02-04T02:25:52.202Z,97111.25
2023-02-04T02:27:55.620Z,97131.13
2023-02-04T02:29:58.421Z,97131.13
2023-02-04T02:32:01.535Z,97009.09
2023-02-04T02:34:04.296Z,97144.00
2023-02-04T02:36:08.887Z,97128.00
2023-02-04T02:38:12.357Z,97067.41
2023-02-04T02:40:19.324Z,97134.69
2023-02-04T02:42:22.264Z,97143.16
2023-02-04T02:44:26.007Z,97132.00
2023-02-04T02:46:28.947Z,97127.97
2023-02-04T02:48:31.792Z,97036.94
2023-02-04T02:50:34.974Z,97157.97
2023-02-04T02:52:37.800Z,97005.56
2023-02-04T02:54:41.537Z,97154.44
2023-02-04T02:56:48.621Z,97147.91
2023-02-04T02:58:51.648Z,97095.31
2023-02-04T03:00:55.230Z,97065.44
2023-02-04T03:03:02.559Z,97177.38
2023-02-04T03:05:05.761Z,97152.91
2023-02-04T03:07:11.453Z,97179.84
2023-02-04T03:09:14.929Z,97171.09
2023-02-04T03:11:17.819Z,97179.59
2023-02-04T03:13:23.239Z,97152.50
2023-02-04T03:15:26.188Z,97168.94
2023-02-04T03:17:29.782Z,97170.09
2023-02-04T03:19:33.290Z,97149.50
2023-02-04T03:21:36.751Z,97111.16
2023-02-04T03:23:39.812Z,97171.09
2023-02-04T03:25:42.632Z,97174.66
2023-02-04T03:27:45.603Z,97188.44
2023-02-04T03:29:49.927Z,97159.28
2023-02-04T03:31:55.248Z,97182.91
2023-02-04T03:33:58.054Z,97193.88
2023-02-04T03:36:00.959Z,97191.50
2023-02-04T03:38:03.709Z,97190.28
2023-02-04T03:40:07.161Z,97195.03
2023-02-04T03:42:09.900Z,97166.41
2023-02-04T03:44:12.657Z,97173.59
2023-02-04T03:46:16.856Z,97198.97
2023-02-04T03:48:19.693Z,97206.16
2023-02-04T03:50:22.527Z,97224.44
2023-02-04T03:52:25.209Z,97221.56
2023-02-04T03:54:27.955Z,97234.91
2023-02-04T03:56:30.824Z,97175.34
2023-02-04T03:58:33.622Z,97217.00
2023-02-04T04:00:36.381Z,97215.09
2023-02-04T04:02:40.928Z,97225.59
2023-02-04T04:04:43.676Z,97237.00
2023-02-04T04:06:46.632Z,97237.28
2023-02-04T04:08:49.461Z,97236.75
2023-02-04T04:10:52.629Z,97210.34
2023-02-04T04:12:55.349Z,97158.25
2023-02-04T04:14:58.142Z,97244.38
2023-02-04T04:17:00.940Z,97222.97
2023-02-04T04:19:05.147Z,97251.59
2023-02-04T04:21:08.957Z,97122.44
2023-02-04T04:23:11.723Z,97156.72
2023-02-04T04:25:14.485Z,97221.41
2023-02-04T04:27:17.325Z,97254.63
2023-02-04T04:29:20.170Z,97254.69
2023-02-04T04:31:22.961Z,97260.50
2023-02-04T04:33:25.810Z,97214.16
2023-02-04T04:35:29.920Z,97236.66
2023-02-04T04:37:34.753Z,97268.00
2023-02-04T04:39:38.444Z,97181.22
2023-02-04T04:41:41.223Z,97264.75
2023-02-04T04:43:43.975Z,97261.72
2023-02-04T04:45:46.750Z,97266.53
2023-02-04T04:47:49.649Z,97260.19
2023-02-04T04:49:52.417Z,97271.50
2023-02-04T04:51:56.553Z,97269.03
2023-02-04T04:53:59.855Z,97266.00
2023-02-04T04:56:02.627Z,97262.13
2023-02-04T04:58:05.782Z,97239.16
2023-02-04T05:00:10.288Z,97283.44
2023-02-04T05:02:13.452Z,97283.44
2023-02-04T05:04:16.205Z,97285.41
2023-02-04T05:06:25.176Z,97192.91
2023-02-04T05:08:29.230Z,97284.91
2023-02-04T05:10:32.223Z,97286.50
2023-02-04T05:12:35.130Z,97275.06
2023-02-04T05:14:39.130Z,97288.53
2023-02-04T05:16:41.959Z,97282.44
2023-02-04T05:18:44.957Z,97287.69
2023-02-04T05:20:47.800Z,97229.72
2023-02-04T05:22:50.520Z,97287.94
2023-02-04T05:24:54.611Z,97290.34
2023-02-04T05:26:57.575Z,97289.44
2023-02-04T05:29:01.327Z,97274.38
2023-02-04T05:31:04.141Z,97296.09
2023-02-04T05:33:06.924Z,97302.22
2023-02-04T05:35:10.230Z,97295.97
2023-02-04T05:37:15.344Z,97287.88
2023-02-04T05:39:18.393Z,97296.78
2023-02-04T05:41:22.605Z,97214.09
2023-02-04T05:43:25.408Z,97290.19
2023-02-04T05:45:28.185Z,97304.25
2023-02-04T05:47:31.118Z,97305.44
2023-02-04T05:49:33.896Z,97313.69
2023-02-04T05:51:36.653Z,97324.72
2023-02-04T05:53:39.389Z,97317.81
2023-02-04T05:55:42.104Z,97298.16
2023-02-04T05:57:46.222Z,97323.06
2023-02-04T05:59:48.922Z,97322.59
2023-02-04T06:01:51.712Z,97316.09
2023-02-04T06:03:54.436Z,97319.47
2023-02-04T06:05:58.109Z,97310.31
2023-02-04T06:08:00.891Z,97313.34
2023-02-04T06:10:03.719Z,97321.88
2023-02-04T06:12:06.756Z,97304.69
2023-02-04T06:14:11.131Z,97318.03
2023-02-04T06:16:14.949Z,97312.22
2023-02-04T06:18:17.802Z,97214.72
2023-02-04T06:20:20.562Z,97318.09
2023-02-04T06:22:24.369Z,97321.03
2023-02-04T06:24:27.097Z,97333.63
2023-02-04T06:26:29.845Z,97335.75
2023-02-04T06:28:32.566Z,97326.75
2023-02-04T06:30:37.468Z,97328.94
2023-02-04T06:32:40.493Z,97346.59
2023-02-04T06:34:43.229Z,97345.78
2023-02-04T06:36:46.006Z,97353.78
2023-02-04T06:38:48.766Z,97315.63
2023-02-04T06:40:53.728Z,97354.13
2023-02-04T06:42:56.600Z,97356.53
2023-02-04T06:44:59.338Z,97362.78
2023-02-04T06:47:03.360Z,97372.81
2023-02-04T06:49:06.094Z,97349.44
2023-02-04T06:51:08.836Z,97376.19
2023-02-04T06:53:11.586Z,97353.84
2023-02-04T06:55:14.591Z,97378.38
2023-02-04T06:57:17.314Z,97381.13
2023-02-04T06:59:20.035Z,97359.81
2023-02-04T07:01:22.819Z,97384.00
2023-02-04T07:03:26.943Z,97382.00
2023-02-04T07:05:29.747Z,97387.78
2023-02-04T07:07:32.800Z,97394.53
2023-02-04T07:09:35.934Z,97382.19
2023-02-04T07:11:38.663Z,97372.38
2023-02-04T07:13:41.403Z,97392.66
2023-02-04T07:15:44.186Z,97384.78
2023-02-04T07:17:46.983Z,97400.63
2023-02-04T07:19:51.158Z,97373.03
2023-02-04T07:21:57.175Z,97394.75
2023-02-04T07:24:00.088Z,97396.50
2023-02-04T07:26:02.804Z,97388.09
2023-02-04T07:28:05.702Z,97400.31
2023-02-04T07:30:10.134Z,97359.31
2023-02-04T07:32:12.932Z,97378.94
2023-02-04T07:34:15.930Z,97354.81
2023-02-04T07:36:20.010Z,97406.00
2023-02-04T07:38:22.773Z,97397.03
2023-02-04T07:40:25.768Z,97374.34
2023-02-04T07:42:28.522Z,97407.88
2023-02-04T07:44:40.126Z,97416.88
2023-02-04T07:46:42.956Z,97402.56
2023-02-04T07:48:45.861Z,97418.91
2023-02-04T07:50:48.681Z,97425.09
2023-02-04T07:52:52.755Z,97427.91
2023-02-04T07:54:55.500Z,97428.47
2023-02-04T07:56:58.461Z,97428.06
2023-02-04T07:59:01.217Z,97430.50
2023-02-04T08:01:04.215Z,97430.00
2023-02-04T08:03:07.317Z,97425.94
2023-02-04T08:05:10.998Z,97421.44
2023-02-04T08:07:13.736Z,97427.94
2023-02-04T08:09:17.793Z,97433.03
2023-02-04T08:11:20.577Z,97441.97
2023-02-04T08:13:23.397Z,97433.63
2023-02-04T08:15:26.211Z,97402.91
2023-02-04T08:17:29.714Z,97446.75
2023-02-04T08:19:32.480Z,97416.59
2023-02-04T08:21:36.414Z,97439.44
2023-02-04T08:23:41.708Z,97436.25
2023-02-04T08:25:46.179Z,97447.53
2023-02-04T08:27:48.963Z,97441.75
2023-02-04T08:29:51.680Z,97447.06
2023-02-04T08:31:54.538Z,97424.97
2023-02-04T08:33:57.301Z,97465.44
2023-02-04T08:36:00.555Z,97436.50
2023-02-04T08:38:03.394Z,97469.28
2023-02-04T08:40:06.935Z,97472.53
2023-02-04T08:42:11.308Z,97481.72
2023-02-04T08:44:14.061Z,97457.09
2023-02-04T08:46:16.901Z,97449.41
2023-02-04T08:48:20.141Z,97480.44
2023-02-04T08:50:22.847Z,97488.91
2023-02-04T08:52:25.589Z,97491.97
2023-02-04T08:54:28.307Z,97484.38
2023-02-04T08:56:31.238Z,97494.19
2023-02-04T08:58:35.653Z,97483.47
2023-02-04T09:00:38.625Z,97474.16
2023-02-04T09:02:41.392Z,97501.28
2023-02-04T09:04:44.148Z,97498.63
2023-02-04T09:06:47.222Z,97499.44
2023-02-04T09:08:49.925Z,97483.13
2023-02-04T09:10:52.640Z,97509.03
2023-02-04T09:12:56.135Z,97504.41
2023-02-04T09:15:00.222Z,97487.66
2023-02-04T09:17:03.025Z,97521.38
2023-02-04T09:19:05.931Z,97514.38
2023-02-04T09:21:08.667Z,97508.84
2023-02-04T09:23:12.182Z,97510.16
2023-02-04T09:25:15.229Z,97523.69
2023-02-04T09:27:17.961Z,97519.97
2023-02-04T09:29:20.801Z,97528.38
2023-02-04T09:31:25.017Z,97482.25
2023-02-04T09:33:27.875Z,97517.53
2023-02-04T09:35:30.712Z,97519.34
2023-02-04T09:37:33.471Z,97529.59
2023-02-04T09:39:36.160Z,97494.69
2023-02-04T09:41:40.649Z,97526.19
2023-02-04T09:43:46.390Z,97535.63
2023-02-04T09:45:50.748Z,97541.22
2023-02-04T09:47:55.780Z,97533.88
2023-02-04T09:49:58.738Z,97543.25
2023-02-04T09:52:01.796Z,97544.22
2023-02-04T09:54:10.045Z,97506.72
2023-02-04T09:56:14.834Z,97548.41
2023-02-04T09:58:19.233Z,97555.50
2023-02-04T10:00:24.646Z,97554.84
2023-02-04T10:02:27.883Z,97557.53
2023-02-04T10:04:32.145Z,97554.47
2023-02-04T10:06:34.934Z,97555.66
2023-02-04T10:08:37.748Z,97550.81
2023-02-04T10:10:40.545Z,97557.09
2023-02-04T10:12:43.292Z,97546.97
2023-02-04T10:14:46.153Z,97531.69
2023-02-04T10:16:57.220Z,97508.34
2023-02-04T10:19:04.558Z,97550.88
2023-02-04T10:21:15.949Z,97511.34
2023-02-04T10:23:18.964Z,97544.13
2023-02-04T10:25:23.880Z,97548.84
2023-02-04T10:27:26.625Z,97547.44
2023-02-04T10:29:29.379Z,97544.63
2023-02-04T10:31:36.013Z,97527.81
2023-02-04T10:33:39.791Z,97534.19
2023-02-04T10:35:47.661Z,97538.38
2023-02-04T10:38:05.069Z,97544.69
2023-02-04T10:40:26.256Z,97448.47
2023-02-04T10:42:30.307Z,97465.56
2023-02-04T10:44:35.896Z,97535.72
2023-02-04T10:46:39.171Z,97486.09
2023-02-04T10:48:44.151Z,97522.59
2023-02-04T10:50:48.296Z,97529.13
2023-02-04T10:52:55.408Z,97519.47
2023-02-04T10:54:58.134Z,97515.47
2023-02-04T10:57:14.271Z,97518.72
2023-02-04T10:59:26.741Z,97527.53
2023-02-04T11:01:31.022Z,97534.38
2023-02-04T11:03:33.831Z,97436.56
2023-02-04T11:05:37.276Z,97532.03
2023-02-04T11:07:40.324Z,97537.69
2023-02-04T11:09:45.258Z,97545.34
2023-02-04T11:11:49.510Z,97547.75
2023-02-04T11:14:04.165Z,97540.78
2023-02-04T11:16:14.349Z,97542.81
2023-02-04T11:18:30.053Z,97490.19
2023-02-04T11:20:34.472Z,97542.03
2023-02-04T11:22:43.257Z,97509.50
2023-02-04T11:24:47.317Z,97537.38
2023-02-04T11:26:52.580Z,97473.13
2023-02-04T11:29:12.103Z,97536.94
2023-02-04T11:31:26.389Z,97541.50
2023-02-04T11:33:39.737Z,97537.22
2023-02-04T11:36:01.592Z,97547.28
2023-02-04T11:38:04.333Z,97539.38
2023-02-04T11:40:33.273Z,97540.91
2023-02-04T11:42:41.869Z,97541.94
2023-02-04T11:44:49.935Z,97502.97
2023-02-04T11:46:55.450Z,97545.59
2023-02-04T11:49:00.602Z,97553.59
2023-02-04T11:51:05.825Z,97546.69
2023-02-04T11:53:11.591Z,97539.78
2023-02-04T11:55:14.409Z,97537.38
2023-02-04T11:57:18.488Z,97531.06
2023-02-04T11:59:21.513Z,97540.16
2023-02-04T12:01:26.619Z,97531.50
2023-02-04T12:03:31.428Z,97524.50
2023-02-04T12:05:40.771Z,97527.19
2023-02-04T12:07:44.318Z,97545.88
2023-02-04T12:09:48.938Z,97545.28
2023-02-04T12:11:53.717Z,97549.34
2023-02-04T12:13:59.832Z,97541.88
2023-02-04T12:16:04.994Z,97512.22
2023-02-04T12:18:09.960Z,97544.19
2023-02-04T12:20:13.848Z,97536.25
2023-02-04T12:22:17.233Z,97544.94
2023-02-04T12:24:19.989Z,97541.41
2023-02-04T12:26:22.677Z,97551.59
2023-02-04T12:28:25.524Z,97554.28
2023-02-04T12:30:29.629Z,97542.91
2023-02-04T12:32:32.280Z,97542.72
2023-02-04T12:34:35.335Z,97550.75
2023-02-04T12:36:38.243Z,97543.53
2023-02-04T12:38:41.595Z,97533.31
2023-02-04T12:40:44.581Z,97541.84
2023-02-04T12:42:47.396Z,97533.09
2023-02-04T12:44:50.101Z,97407.22
2023-02-04T12:46:55.070Z,97366.19
2023-02-04T12:48:57.824Z,97541.81
2023-02-04T12:51:00.504Z,97543.09
2023-02-04T12:53:04.074Z,97546.00
2023-02-04T12:55:08.553Z,97550.50
2023-02-04T12:57:11.906Z,97548.56
2023-02-04T12:59:14.627Z,97545.97
2023-02-04T13:01:17.404Z,97548.66
2023-02-04T13:03:22.757Z,97468.19
2023-02-04T13:05:26.148Z,97551.22
2023-02-04T13:07:28.795Z,97552.47
2023-02-04T13:09:31.466Z,97551.69
2023-02-04T13:11:34.163Z,97558.16
2023-02-04T13:13:36.817Z,97557.53
2023-02-04T13:15:39.517Z,97553.31
2023-02-04T13:17:42.153Z,97554.22
2023-02-04T13:19:46.119Z,97551.09
2023-02-04T13:21:48.780Z,97535.19
2023-02-04T13:23:51.843Z,97560.13
2023-02-04T13:25:54.553Z,97548.03
2023-02-04T13:27:57.267Z,97553.72
2023-02-04T13:30:00.198Z,97551.81
2023-02-04T13:32:02.934Z,97553.28
2023-02-04T13:34:05.637Z,97446.59
2023-02-04T13:36:09.824Z,97539.28
2023-02-04T13:38:12.486Z,97555.78
2023-02-04T13:40:15.184Z,97558.50
2023-02-04T13:42:17.914Z,97560.69
2023-02-04T13:44:20.722Z,97551.78
2023-02-04T13:46:23.583Z,97559.69
2023-02-04T13:48:26.443Z,97555.63
2023-02-04T13:50:29.529Z,97556.97
2023-02-04T13:52:34.482Z,97500.19
2023-02-04T13:54:37.333Z,97566.22
2023-02-04T13:56:41.128Z,97562.75
2023-02-04T13:58:45.492Z,97553.47
2023-02-04T14:00:48.325Z,97540.44
2023-02-04T14:02:51.089Z,97556.75
2023-02-04T14:04:53.868Z,97562.94
2023-02-04T14:06:56.714Z,97570.38
2023-02-04T14:09:01.156Z,97567.50
2023-02-04T14:11:03.989Z,97537.94
2023-02-04T14:13:06.861Z,97579.75
2023-02-04T14:15:10.418Z,97587.03
2023-02-04T14:17:13.165Z,97585.03
2023-02-04T14:19:16.023Z,97576.75
2023-02-04T14:21:18.775Z,97588.13
2023-02-04T14:23:21.534Z,97583.97
2023-02-04T14:25:25.637Z,97587.94
2023-02-04T14:27:28.407Z,97589.16
2023-02-04T14:29:31.154Z,97590.91
2023-02-04T14:31:33.973Z,97578.22
2023-02-04T14:33:36.749Z,97587.16
2023-02-04T14:35:39.450Z,97583.66
2023-02-04T14:37:42.208Z,97596.84
2023-02-04T14:39:44.944Z,97583.53
2023-02-04T14:41:48.985Z,97591.53
2023-02-04T14:43:53.221Z,97588.38
2023-02-04T14:45:56.023Z,97589.47
2023-02-04T14:48:00.465Z,97592.06
2023-02-04T14:50:03.941Z,97550.28
2023-02-04T14:52:06.757Z,97601.03
2023-02-04T14:54:09.550Z,97604.44
2023-02-04T14:56:12.258Z,97602.31
2023-02-04T14:58:16.353Z,97606.53
2023-02-04T15:00:20.581Z,97608.56
2023-02-04T15:02:23.332Z,97602.31
2023-02-04T15:04:26.090Z,97605.75
2023-02-04T15:06:28.812Z,97601.91
2023-02-04T15:08:32.730Z,97596.75
2023-02-04T15:10:35.438Z,97606.94
2023-02-04T15:12:38.301Z,97599.31
2023-02-04T15:14:42.363Z,97580.59
2023-02-04T15:16:48.033Z,97593.59
2023-02-04T15:18:50.798Z,97580.28
2023-02-04T15:20:53.575Z,97608.91
2023-02-04T15:22:56.501Z,97600.28
2023-02-04T15:24:59.227Z,97608.13
2023-02-04T15:27:02.071Z,97605.22
2023-02-04T15:29:05.476Z,97609.25
2023-02-04T15:31:09.835Z,97604.91
2023-02-04T15:33:14.055Z,97610.50
2023-02-04T15:35:17.054Z,97610.53
2023-02-04T15:37:19.806Z,97605.22
2023-02-04T15:39:22.585Z,97617.47
2023-02-04T15:41:25.325Z,97606.22
2023-02-04T15:43:28.162Z,97587.25
2023-02-04T15:45:30.950Z,97609.34
2023-02-04T15:47:35.028Z,97619.66
2023-02-04T15:49:39.062Z,97619.94
2023-02-04T15:51:41.840Z,97611.56
2023-02-04T15:53:44.594Z,97623.63
2023-02-04T15:55:47.666Z,97602.19
2023-02-04T15:57:50.597Z,97612.03
2023-02-04T15:59:53.343Z,97625.34
2023-02-04T16:01:56.105Z,97619.94
2023-02-04T16:04:00.772Z,97619.03
2023-02-04T16:06:04.204Z,97575.47
2023-02-04T16:08:06.941Z,97621.97
2023-02-04T16:10:10.294Z,97562.25
2023-02-04T16:12:13.008Z,97619.66
2023-02-04T16:14:15.738Z,97605.81
2023-02-04T16:16:18.638Z,97589.81
2023-02-04T16:18:21.461Z,97631.53
2023-02-04T16:20:25.602Z,97625.44
2023-02-04T16:22:28.607Z,97629.72
2023-02-04T16:24:31.314Z,97632.13
2023-02-04T16:26:34.112Z,97641.00
2023-02-04T16:28:36.826Z,97640.00
2023-02-04T16:30:39.767Z,97641.66
2023-02-04T16:32:42.557Z,97647.09
2023-02-04T16:34:45.330Z,97657.22
2023-02-04T16:36:49.397Z,97648.09
2023-02-04T16:38:52.126Z,97652.59
2023-02-04T16:40:54.877Z,97646.31
2023-02-04T16:42:57.976Z,97649.31
2023-02-04T16:45:00.698Z,97640.56
2023-02-04T16:47:03.599Z,97661.25
2023-02-04T16:49:06.349Z,97660.44
2023-02-04T16:51:11.260Z,97666.00
2023-02-04T16:53:16.212Z,97665.03
2023-02-04T16:55:19.043Z,97667.38
2023-02-04T16:57:21.863Z,97655.03
2023-02-04T16:59:24.630Z,97662.50
2023-02-04T17:01:27.553Z,97668.91
2023-02-04T17:03:30.345Z,97633.66
2023-02-04T17:05:33.455Z,97666.00
2023-02-04T17:07:36.408Z,97669.44
2023-02-04T17:09:40.545Z,97677.00
2023-02-04T17:11:42.663Z,97678.25
2023-02-04T17:13:45.508Z,97679.94
2023-02-04T17:15:48.364Z,97678.56
2023-02-04T17:17:51.161Z,97625.34
2023-02-04T17:19:53.934Z,97674.94
2023-02-04T17:21:56.679Z,97677.28
2023-02-04T17:24:04.361Z,97685.78
2023-02-04T17:26:08.626Z,97686.63
2023-02-04T17:28:11.758Z,97613.50
2023-02-04T17:30:15.459Z,97694.03
2023-02-04T17:32:18.275Z,97688.28
2023-02-04T17:34:21.098Z,97692.78
2023-02-04T17:36:23.840Z,97687.38
2023-02-04T17:38:28.019Z,97699.00
2023-02-04T17:40:31.402Z,97693.06
2023-02-04T17:42:35.556Z,97681.69
2023-02-04T17:44:38.316Z,97690.69
2023-02-04T17:46:41.235Z,97698.16
2023-02-04T17:48:44.349Z,97695.31
2023-02-04T17:50:47.197Z,97731.63
2023-02-04T17:52:50.065Z,97702.66
2023-02-04T17:54:52.792Z,97703.66
2023-02-04T17:56:57.815Z,97683.22
2023-02-04T17:59:02.142Z,97719.50
2023-02-04T18:01:10.823Z,97506.53
2023-02-04T18:03:14.867Z,97712.50
2023-02-04T18:05:20.422Z,97705.81
2023-02-04T18:07:23.925Z,97691.59
2023-02-04T18:09:28.010Z,97718.22
2023-02-04T18:11:36.998Z,97710.97
2023-02-04T18:13:39.712Z,97715.09
2023-02-04T18:15:45.622Z,97713.81
2023-02-04T18:17:48.355Z,97707.81
2023-02-04T18:19:51.088Z,97707.44
2023-02-04T18:21:55.099Z,97704.09
2023-02-04T18:24:05.934Z,97706.91
2023-02-04T18:26:14.692Z,97706.56
2023-02-04T18:28:19.421Z,97702.56
2023-02-04T18:30:26.324Z,97711.03
2023-02-04T18:32:37.989Z,97706.88
2023-02-04T18:34:44.209Z,97710.88
2023-02-04T18:36:47.029Z,97715.38
2023-02-04T18:38:50.622Z,97651.09
2023-02-04T18:40:59.304Z,97706.91
2023-02-04T18:43:14.211Z,97705.91
2023-02-04T18:45:25.682Z,97707.25
2023-02-04T18:47:33.392Z,97676.72
2023-02-04T18:49:41.193Z,97708.97
2023-02-04T18:51:45.863Z,97645.16
2023-02-04T18:53:48.776Z,97706.97
2023-02-04T18:55:53.271Z,97614.09
2023-02-04T18:57:56.510Z,97712.97
2023-02-04T19:00:34.773Z,97719.28
2023-02-04T19:02:42.779Z,97719.28
2023-02-04T19:04:45.947Z,97710.97
2023-02-04T19:06:49.949Z,97668.59
2023-02-04T19:08:53.928Z,97720.28
2023-02-04T19:10:58.076Z,97599.97
2023-02-04T19:13:16.015Z,97707.66
2023-02-04T19:15:35.037Z,97710.66
2023-02-04T19:17:39.343Z,97706.16
2023-02-04T19:19:45.223Z,97712.66
2023-02-04T19:21:48.864Z,97710.97
2023-02-04T19:23:54.244Z,97709.00
2023-02-04T19:25:56.984Z,97716.63
2023-02-04T19:28:01.319Z,97718.28
2023-02-04T19:30:35.118Z,97714.31
2023-02-04T19:32:46.364Z,97714.13
2023-02-04T19:34:49.340Z,97714.31
2023-02-04T19:36:52.360Z,97693.50
2023-02-04T19:38:59.302Z,97708.81
2023-02-04T19:41:02.097Z,97715.97
2023-02-04T19:43:22.244Z,97728.91
2023-02-04T19:45:26.775Z,97730.91
2023-02-04T19:47:35.262Z,97682.69
2023-02-04T19:49:40.776Z,97705.09
2023-02-04T19:51:53.239Z,97716.78
2023-02-04T19:54:02.563Z,97716.56
2023-02-04T19:56:29.196Z,97721.81
2023-02-04T19:58:41.687Z,97711.19
2023-02-04T20:00:54.992Z,97726.13
2023-02-04T20:02:58.492Z,97677.72
2023-02-04T20:05:14.352Z,97724.13
2023-02-04T20:07:20.813Z,97689.72
2023-02-04T20:09:25.183Z,97735.91
2023-02-04T20:11:45.089Z,97714.00
2023-02-04T20:13:47.914Z,97743.41
2023-02-04T20:15:51.951Z,97729.06
2023-02-04T20:17:54.751Z,97747.03
2023-02-04T20:20:03.402Z,97753.34
2023-02-04T20:22:43.786Z,97753.66
2023-02-04T20:24:49.040Z,97748.00
2023-02-04T20:26:52.858Z,97754.31
2023-02-04T20:28:56.115Z,97741.66
2023-02-04T20:31:01.636Z,97750.16
2023-02-04T20:33:23.653Z,97720.75
2023-02-04T20:36:18.422Z,97750.38
2023-02-04T20:38:22.554Z,97748.84
2023-02-04T20:40:32.383Z,97740.13
2023-02-04T20:42:41.903Z,97754.28
2023-02-04T20:44:46.931Z,97749.47
2023-02-04T20:46:49.836Z,97750.94
2023-02-04T20:48:52.722Z,97752.94
2023-02-04T20:50:56.440Z,97743.66
2023-02-04T20:53:07.435Z,97751.47
2023-02-04T20:55:24.486Z,97752.75
2023-02-04T20:57:27.355Z,97738.34
2023-02-04T20:59:33.819Z,97752.13
2023-02-04T21:01:38.336Z,97706.25
2023-02-04T21:03:41.135Z,97761.78
2023-02-04T21:05:43.955Z,97755.38
2023-02-04T21:07:46.871Z,97767.31
2023-02-04T21:09:51.691Z,97764.41
2023-02-04T21:11:57.376Z,97764.59
2023-02-04T21:14:00.172Z,97733.06
2023-02-04T21:16:04.676Z,97761.16
2023-02-04T21:18:07.945Z,97692.72
2023-02-04T21:20:11.798Z,97765.72
2023-02-04T21:22:14.923Z,97762.28
2023-02-04T21:24:18.303Z,97767.94
2023-02-04T21:26:21.207Z,97729.63
2023-02-04T21:28:25.387Z,97774.59
2023-02-04T21:30:30.330Z,97767.31
2023-02-04T21:32:33.212Z,97771.69
2023-02-04T21:34:35.938Z,97766.31
2023-02-04T21:36:38.660Z,97769.09
2023-02-04T21:38:41.473Z,97664.69
2023-02-04T21:40:44.279Z,97770.13
2023-02-04T21:42:47.053Z,97768.13
2023-02-04T21:44:51.131Z,97751.34
2023-02-04T21:46:53.853Z,97766.03
2023-02-04T21:48:56.558Z,97696.06
2023-02-04T21:50:59.298Z,97772.09
2023-02-04T21:53:02.094Z,97776.16
2023-02-04T21:55:05.206Z,97748.13
2023-02-04T21:57:08.023Z,97768.94
2023-02-04T21:59:10.736Z,97725.66
2023-02-04T22:01:14.844Z,97709.41
2023-02-04T22:03:17.678Z,97768.63
2023-02-04T22:05:21.515Z,97761.34
2023-02-04T22:07:24.394Z,97777.91
2023-02-04T22:09:27.162Z,97775.00
2023-02-04T22:11:29.890Z,97771.88
2023-02-04T22:13:50.373Z,97785.47
2023-02-04T22:15:53.190Z,97766.53
2023-02-04T22:17:57.663Z,97762.47
2023-02-04T22:20:00.415Z,97758.38
2023-02-04T22:22:03.174Z,97756.03
2023-02-04T22:24:06.557Z,97761.31
2023-02-04T22:26:09.690Z,97744.66
2023-02-04T22:28:12.506Z,97755.34
2023-02-04T22:30:17.294Z,97699.13
2023-02-04T22:32:20.196Z,97753.53
2023-02-04T22:34:25.171Z,97729.97
2023-02-04T22:36:28.000Z,97759.84
2023-02-04T22:38:30.810Z,97756.50
2023-02-04T22:40:33.627Z,97754.13
2023-02-04T22:42:36.447Z,97753.66
2023-02-04T22:44:39.296Z,97745.75
2023-02-04T22:46:42.189Z,97746.84
2023-02-04T22:48:44.967Z,97756.16
2023-02-04T22:50:49.047Z,97764.78
2023-02-04T22:52:51.765Z,97764.06
2023-02-04T22:54:54.551Z,97755.53
2023-02-04T22:57:00.243Z,97765.53
2023-02-04T22:59:03.001Z,97670.84
2023-02-04T23:01:06.214Z,97765.22
2023-02-04T23:03:08.972Z,97757.75
2023-02-04T23:05:11.705Z,97772.91
2023-02-04T23:07:15.824Z,97768.84
2023-02-04T23:09:19.343Z,97772.19
2023-02-04T23:11:23.219Z,97776.97
2023-02-04T23:13:26.106Z,97769.84
2023-02-04T23:15:28.937Z,97759.31
2023-02-04T23:17:31.770Z,97723.75
2023-02-04T23:19:34.577Z,97760.19
2023-02-04T23:21:37.445Z,97764.72
2023-02-04T23:23:42.004Z,97761.19
2023-02-04T23:25:45.061Z,97770.75
2023-02-04T23:27:48.231Z,97715.28
2023-02-04T23:29:51.009Z,97761.13
2023-02-04T23:31:53.797Z,97766.34
2023-02-04T23:33:56.625Z,97758.22
2023-02-04T23:35:59.532Z,97774.16
2023-02-04T23:38:03.029Z,97711.47
2023-02-04T23:40:08.161Z,97677.53
2023-02-04T23:42:10.893Z,97762.84
2023-02-04T23:44:13.774Z,97759.19
2023-02-04T23:46:16.488Z,97735.75
2023-02-04T23:48:19.315Z,97767.50
2023-02-04T23:50:22.202Z,97761.38
2023-02-04T23:52:25.003Z,97748.84
2023-02-04T23:54:27.793Z,97761.72
2023-02-04T23:56:31.962Z,97741.47
2023-02-04T23:58:34.788Z,97749.75
